createdAt,value
2019-01-14T00:00:48.671Z,99.90
2019-01-14T00:03:19.982Z,99.90
2019-01-14T00:06:10.327Z,99.90
2019-01-14T00:09:23.125Z,99.90
2019-01-14T00:12:12.076Z,99.90
2019-01-14T00:20:20.604Z,99.90
2019-01-14T00:22:51.241Z,99.90
2019-01-14T00:25:41.213Z,99.90
2019-01-14T00:28:50.022Z,99.90
2019-01-14T00:31:32.795Z,99.90
2019-01-14T00:34:03.650Z,99.90
2019-01-14T00:36:53.332Z,99.90
2019-01-14T00:39:35.837Z,99.90
2019-01-14T00:42:18.465Z,99.90
2019-01-14T00:45:01.612Z,99.90
2019-01-14T00:47:44.518Z,99.90
2019-01-14T00:50:26.750Z,99.90
2019-01-14T00:53:09.600Z,99.90
2019-01-14T00:55:52.353Z,99.90
2019-01-14T00:58:35.325Z,99.90
2019-01-14T01:01:17.922Z,99.90
2019-01-14T01:06:42.234Z,99.90
2019-01-14T01:09:24.437Z,99.90
2019-01-14T01:12:08.144Z,99.90
2019-01-14T01:14:49.996Z,99.90
2019-01-14T01:17:33.299Z,99.90
2019-01-14T01:20:16.767Z,99.90
2019-01-14T01:22:48.436Z,99.90
2019-01-14T01:25:19.413Z,99.90
2019-01-14T01:27:50.062Z,99.90
2019-01-14T01:30:39.773Z,99.90
2019-01-14T01:33:29.379Z,99.90
2019-01-14T01:36:11.548Z,99.90
2019-01-14T01:38:53.726Z,99.90
2019-01-14T01:41:37.387Z,99.90
2019-01-14T01:44:19.401Z,99.90
2019-01-14T01:47:02.939Z,99.90
2019-01-14T01:49:33.455Z,99.90
2019-01-14T01:52:23.036Z,99.90
2019-01-14T01:55:13.333Z,99.90
2019-01-14T01:57:55.100Z,99.90
2019-01-14T02:00:29.427Z,99.90
2019-01-14T02:03:19.625Z,99.90
2019-01-14T02:05:50.443Z,99.90
2019-01-14T02:08:21.484Z,99.90
2019-01-14T02:10:51.973Z,99.90
2019-01-14T02:13:41.860Z,99.90
2019-01-14T02:19:22.884Z,99.90
2019-01-14T02:22:12.692Z,99.90
2019-01-14T02:25:02.705Z,99.90
2019-01-14T02:27:35.759Z,99.90
2019-01-14T02:30:25.559Z,99.90
2019-01-14T02:33:07.535Z,99.90
2019-01-14T02:35:55.688Z,99.90
2019-01-14T02:38:37.622Z,99.90
2019-01-14T02:41:19.871Z,99.90
2019-01-14T02:43:50.848Z,99.90
2019-01-14T02:46:40.655Z,99.90
2019-01-14T02:49:11.927Z,99.90
2019-01-14T02:51:42.963Z,99.90
2019-01-14T02:54:32.665Z,99.90
2019-01-14T02:57:22.294Z,99.90
2019-01-14T02:59:53.516Z,99.90
2019-01-14T03:02:25.680Z,99.90
2019-01-14T03:05:07.727Z,99.90
2019-01-14T03:07:53.067Z,99.90
2019-01-14T03:10:35.493Z,99.90
2019-01-14T03:13:18.154Z,99.90
2019-01-14T03:16:00.739Z,99.90
2019-01-14T03:18:43.359Z,99.90
2019-01-14T03:21:26.038Z,99.90
2019-01-14T03:23:56.643Z,99.90
2019-01-14T03:26:27.335Z,99.90
2019-01-14T03:29:18.478Z,99.90
2019-01-14T03:35:08.171Z,99.90
2019-01-14T03:37:38.815Z,99.90
2019-01-14T03:40:28.814Z,99.90
2019-01-14T03:43:18.487Z,99.90
2019-01-14T03:45:50.120Z,99.90
2019-01-14T03:48:22.207Z,99.90
2019-01-14T03:51:11.800Z,99.90
2019-01-14T03:53:42.856Z,99.90
2019-01-14T03:56:33.276Z,99.90
2019-01-14T03:59:03.889Z,99.90
2019-01-14T04:01:53.478Z,99.90
2019-01-14T04:04:24.434Z,99.90
2019-01-14T04:06:56.337Z,99.90
2019-01-14T04:09:45.986Z,99.90
2019-01-14T04:12:16.572Z,99.90
2019-01-14T04:15:08.595Z,99.90
2019-01-14T04:17:51.003Z,99.90
2019-01-14T04:20:22.169Z,99.90
2019-01-14T04:22:54.707Z,99.90
2019-01-14T04:25:27.691Z,99.90
2019-01-14T04:27:58.619Z,99.90
2019-01-14T04:30:30.917Z,99.90
2019-01-14T04:33:20.497Z,99.90
2019-01-14T04:35:51.203Z,99.90
2019-01-14T04:38:41.591Z,99.90
2019-01-14T04:41:23.793Z,99.90
2019-01-14T04:43:54.627Z,99.90
2019-01-14T04:46:44.647Z,99.90
2019-01-14T04:49:27.623Z,99.90
2019-01-14T04:52:10.554Z,99.90
2019-01-14T04:54:53.345Z,99.90
2019-01-14T04:57:36.331Z,99.90
2019-01-14T05:00:12.640Z,99.90
2019-01-14T05:05:44.549Z,99.90
2019-01-14T05:08:28.554Z,99.90
2019-01-14T05:11:00.917Z,99.90
2019-01-14T05:13:51.045Z,99.90
2019-01-14T05:16:21.661Z,99.90
2019-01-14T05:18:53.662Z,99.90
2019-01-14T05:21:43.879Z,99.90
2019-01-14T05:24:15.218Z,99.90
2019-01-14T05:27:04.953Z,99.90
2019-01-14T05:29:35.616Z,99.90
2019-01-14T05:35:08.045Z,99.90
2019-01-14T05:37:39.182Z,99.90
2019-01-14T05:40:29.137Z,99.90
2019-01-14T05:43:11.275Z,99.90
2019-01-14T05:45:53.447Z,99.90
2019-01-14T05:48:24.695Z,99.90
2019-01-14T05:50:55.233Z,99.90
2019-01-14T05:53:25.707Z,99.90
2019-01-14T05:56:15.307Z,99.90
2019-01-14T05:59:04.990Z,99.90
2019-01-14T06:01:47.424Z,99.90
2019-01-14T06:04:29.432Z,99.90
2019-01-14T06:06:59.969Z,99.90
2019-01-14T06:09:49.672Z,99.90
2019-01-14T06:12:22.328Z,99.90
2019-01-14T06:14:55.292Z,99.90
2019-01-14T06:17:45.303Z,99.90
2019-01-14T06:20:29.214Z,99.90
2019-01-14T06:23:11.126Z,99.90
2019-01-14T06:25:53.231Z,99.90
2019-01-14T06:28:24.155Z,99.90
2019-01-14T06:31:13.760Z,99.90
2019-01-14T06:33:45.065Z,99.90
2019-01-14T06:36:20.265Z,99.90
2019-01-14T06:39:12.241Z,99.90
2019-01-14T06:42:14.451Z,99.90
2019-01-14T06:44:57.232Z,99.90
2019-01-14T06:47:28.378Z,99.90
2019-01-14T06:50:12.950Z,99.90
2019-01-14T06:52:44.103Z,99.90
2019-01-14T06:55:15.269Z,99.90
2019-01-14T06:57:59.577Z,99.90
2019-01-14T07:00:33.252Z,99.90
2019-01-14T07:03:22.832Z,99.90
2019-01-14T07:06:05.350Z,99.90
2019-01-14T07:08:48.082Z,99.90
2019-01-14T07:11:30.894Z,99.90
2019-01-14T07:16:56.965Z,99.90
2019-01-14T07:22:26.010Z,99.90
2019-01-14T07:25:08.212Z,99.90
2019-01-14T07:27:50.804Z,99.90
2019-01-14T07:30:33.167Z,99.90
2019-01-14T07:33:15.412Z,99.90
2019-01-14T07:35:46.047Z,99.90
2019-01-14T07:38:35.980Z,99.90
2019-01-14T07:41:07.241Z,99.90
2019-01-14T07:43:37.672Z,99.90
2019-01-14T07:46:10.417Z,99.90
2019-01-14T07:49:00.231Z,99.90
2019-01-14T07:51:49.810Z,99.90
2019-01-14T07:54:31.752Z,99.90
2019-01-14T07:57:02.384Z,99.90
2019-01-14T07:59:34.075Z,99.90
2019-01-14T08:02:23.675Z,99.90
2019-01-14T08:05:13.512Z,99.90
2019-01-14T08:07:44.038Z,99.90
2019-01-14T08:10:14.697Z,99.90
2019-01-14T08:12:45.161Z,99.90
2019-01-14T08:15:17.341Z,99.90
2019-01-14T08:18:00.023Z,99.90
2019-01-14T08:20:42.760Z,99.90
2019-01-14T08:23:26.085Z,99.90
2019-01-14T08:25:56.743Z,99.90
2019-01-14T08:28:46.494Z,95.40
2019-01-14T08:31:28.440Z,92.10
2019-01-14T08:34:11.021Z,82.60
2019-01-14T08:37:00.887Z,71.60
2019-01-14T08:39:40.715Z,67.70
2019-01-14T08:42:23.180Z,55.80
2019-01-14T08:45:05.464Z,50.80
2019-01-14T08:47:35.975Z,49.00
2019-01-14T08:50:26.031Z,50.80
2019-01-14T08:53:09.832Z,47.40
2019-01-14T08:55:52.884Z,43.30
2019-01-14T08:58:34.840Z,41.10
2019-01-14T09:01:16.543Z,37.70
2019-01-14T09:03:58.746Z,33.90
2019-01-14T09:06:41.506Z,36.50
2019-01-14T09:09:13.179Z,30.00
2019-01-14T09:12:02.795Z,28.90
2019-01-14T09:14:46.747Z,28.80
2019-01-14T09:17:29.243Z,28.20
2019-01-14T09:20:39.573Z,26.00
2019-01-14T09:23:10.047Z,26.30
2019-01-14T09:25:40.580Z,25.10
2019-01-14T09:28:30.211Z,26.90
2019-01-14T09:37:04.592Z,33.10
2019-01-14T09:39:35.126Z,35.30
2019-01-14T09:42:05.608Z,38.80
2019-01-14T09:44:55.203Z,40.80
2019-01-14T09:47:37.385Z,42.90
2019-01-14T09:50:10.406Z,43.20
2019-01-14T09:52:40.947Z,44.70
2019-01-14T09:55:30.575Z,36.60
2019-01-14T09:58:20.371Z,32.40
2019-01-14T10:01:02.331Z,28.00
2019-01-14T10:03:44.623Z,26.10
2019-01-14T10:06:15.533Z,24.70
2019-01-14T10:08:46.095Z,23.90
2019-01-14T10:11:16.677Z,23.90
2019-01-14T10:14:06.239Z,24.70
2019-01-14T10:20:00.377Z,22.10
2019-01-14T10:22:31.304Z,21.20
2019-01-14T10:25:20.924Z,19.40
2019-01-14T10:27:53.097Z,19.80
2019-01-14T10:30:23.764Z,19.50
2019-01-14T10:32:54.300Z,19.50
2019-01-14T10:35:26.472Z,19.00
2019-01-14T10:37:57.283Z,17.60
2019-01-14T10:43:27.847Z,17.90
2019-01-14T10:46:11.209Z,17.50
2019-01-14T10:48:41.767Z,16.60
2019-01-14T10:51:31.398Z,16.80
2019-01-14T10:54:13.075Z,15.60
2019-01-14T10:56:55.588Z,15.60
2019-01-14T11:02:22.289Z,15.20
2019-01-14T11:04:52.811Z,15.80
2019-01-14T11:07:42.436Z,16.00
2019-01-14T11:10:13.061Z,15.80
2019-01-14T11:13:02.723Z,17.10
2019-01-14T11:15:33.513Z,18.10
2019-01-14T11:18:23.122Z,19.00
2019-01-14T11:20:53.690Z,19.10
2019-01-14T11:23:24.316Z,21.00
2019-01-14T11:25:54.925Z,22.90
2019-01-14T11:28:44.563Z,23.80
2019-01-14T11:31:15.128Z,24.90
2019-01-14T11:33:45.675Z,25.90
2019-01-14T11:36:35.350Z,26.50
2019-01-14T11:39:31.646Z,27.40
2019-01-14T11:42:14.054Z,29.30
2019-01-14T11:44:56.859Z,29.20
2019-01-14T11:47:27.531Z,31.10
2019-01-14T11:49:58.767Z,32.30
2019-01-14T11:52:48.439Z,32.40
2019-01-14T12:00:42.844Z,31.30
2019-01-14T12:03:13.403Z,33.60
2019-01-14T12:05:43.989Z,31.30
2019-01-14T12:08:14.466Z,31.40
2019-01-14T12:10:44.985Z,30.20
2019-01-14T12:16:21.681Z,26.30
2019-01-14T12:18:52.311Z,26.90
2019-01-14T12:21:22.842Z,25.80
2019-01-14T12:24:15.667Z,24.90
2019-01-14T12:26:46.647Z,24.40
2019-01-14T12:29:36.347Z,24.60
2019-01-14T12:32:18.365Z,23.60
2019-01-14T12:35:00.692Z,24.30
2019-01-14T12:37:31.380Z,24.80
2019-01-14T12:40:01.899Z,27.10
2019-01-14T12:42:51.583Z,27.80
2019-01-14T12:45:22.947Z,28.70
2019-01-14T12:47:53.503Z,30.20
2019-01-14T12:50:43.120Z,30.80
2019-01-14T12:53:25.669Z,30.80
2019-01-14T12:56:07.771Z,29.90
2019-01-14T12:58:50.211Z,31.00
2019-01-14T13:01:32.625Z,30.90
2019-01-14T13:04:03.155Z,31.50
2019-01-14T13:06:54.101Z,30.90
2019-01-14T13:09:43.793Z,30.00
2019-01-14T13:12:26.019Z,29.00
2019-01-14T13:15:14.492Z,27.20
2019-01-14T13:17:57.215Z,28.30
2019-01-14T13:20:38.963Z,26.70
2019-01-14T13:23:23.620Z,26.70
2019-01-14T13:28:40.376Z,27.60
2019-01-14T13:31:29.971Z,28.50
2019-01-14T13:34:13.035Z,30.00
2019-01-14T13:36:43.591Z,32.00
2019-01-14T13:39:14.609Z,34.10
2019-01-14T13:42:16.537Z,35.90
2019-01-14T13:44:55.963Z,37.30
2019-01-14T13:47:48.248Z,39.70
2019-01-14T13:50:33.393Z,43.00
2019-01-14T13:53:15.318Z,45.50
2019-01-14T13:55:59.549Z,45.40
2019-01-14T13:58:30.089Z,46.00
2019-01-14T14:01:01.101Z,45.80
2019-01-14T14:03:52.607Z,49.10
2019-01-14T14:06:23.509Z,47.70
2019-01-14T14:08:54.073Z,49.00
2019-01-14T14:11:43.801Z,48.90
2019-01-14T14:14:33.387Z,48.90
2019-01-14T14:20:23.441Z,50.30
2019-01-14T14:22:53.991Z,51.50
2019-01-14T14:25:43.689Z,52.10
2019-01-14T14:28:25.884Z,53.70
2019-01-14T14:30:56.464Z,55.00
2019-01-14T14:33:27.010Z,56.20
2019-01-14T14:36:16.615Z,57.50
2019-01-14T14:41:41.782Z,57.30
2019-01-14T14:44:12.803Z,58.70
2019-01-14T14:47:02.785Z,58.90
2019-01-14T14:49:33.557Z,58.00
2019-01-14T14:52:24.597Z,58.00
2019-01-14T14:55:14.846Z,59.90
2019-01-14T14:57:45.387Z,59.50
2019-01-14T15:00:19.883Z,60.90
2019-01-14T15:02:51.388Z,61.10
2019-01-14T15:05:41.171Z,60.10
2019-01-14T15:08:11.703Z,59.90
2019-01-14T15:11:01.308Z,62.80
2019-01-14T15:13:44.298Z,61.70
2019-01-14T15:16:27.466Z,60.80
2019-01-14T15:19:09.906Z,63.00
2019-01-14T15:21:52.461Z,61.30
2019-01-14T15:24:34.554Z,62.80
2019-01-14T15:27:16.919Z,63.10
2019-01-14T15:29:59.462Z,62.90
2019-01-14T15:35:23.186Z,63.00
2019-01-14T15:38:07.434Z,63.20
2019-01-14T15:40:38.367Z,62.60
2019-01-14T15:43:08.916Z,62.60
2019-01-14T15:45:59.792Z,61.00
2019-01-14T15:48:30.357Z,62.20
2019-01-14T15:51:01.359Z,63.00
2019-01-14T15:53:44.059Z,63.30
2019-01-14T15:56:28.669Z,63.80
2019-01-14T15:59:10.484Z,64.80
2019-01-14T16:01:41.039Z,66.20
2019-01-14T16:04:11.991Z,65.50
2019-01-14T16:07:01.578Z,66.30
2019-01-14T16:09:43.832Z,65.50
2019-01-14T16:12:14.341Z,68.20
2019-01-14T16:14:44.899Z,67.20
2019-01-14T16:17:53.919Z,66.90
2019-01-14T16:20:26.133Z,65.90
2019-01-14T16:22:56.731Z,64.70
2019-01-14T16:25:27.263Z,66.00
2019-01-14T16:28:17.199Z,62.50
2019-01-14T16:30:47.832Z,63.50
2019-01-14T16:33:38.203Z,64.40
2019-01-14T16:36:20.964Z,64.40
2019-01-14T16:38:51.598Z,63.90
2019-01-14T16:41:41.175Z,66.10
2019-01-14T16:44:23.727Z,65.60
2019-01-14T16:47:05.946Z,66.40
2019-01-14T16:49:48.032Z,67.20
2019-01-14T16:52:18.645Z,68.70
2019-01-14T16:54:49.954Z,68.80
2019-01-14T16:57:21.150Z,70.60
2019-01-14T17:00:14.340Z,73.40
2019-01-14T17:03:03.967Z,72.90
2019-01-14T17:05:36.213Z,71.70
2019-01-14T17:08:25.796Z,71.90
2019-01-14T17:11:10.057Z,73.00
2019-01-14T17:13:48.301Z,74.30
2019-01-14T17:16:20.124Z,75.40
2019-01-14T17:18:53.618Z,74.40
2019-01-14T17:21:55.294Z,75.20
2019-01-14T17:24:25.826Z,74.60
2019-01-14T17:27:15.621Z,75.80
2019-01-14T17:30:26.205Z,78.30
2019-01-14T17:32:56.726Z,77.40
2019-01-14T17:35:27.550Z,77.10
2019-01-14T17:37:59.628Z,77.80
2019-01-14T17:40:42.606Z,79.60
2019-01-14T17:43:24.627Z,77.80
2019-01-14T17:48:49.209Z,80.90
2019-01-14T17:51:19.935Z,79.50
2019-01-14T17:53:52.059Z,80.30
2019-01-14T17:56:24.149Z,79.50
2019-01-14T17:58:54.962Z,81.70
2019-01-14T18:01:29.216Z,79.70
2019-01-14T18:04:18.805Z,78.80
2019-01-14T18:06:49.432Z,76.40
2019-01-14T18:09:39.011Z,77.70
2019-01-14T18:12:28.604Z,76.00
2019-01-14T18:15:00.488Z,75.80
2019-01-14T18:17:50.074Z,77.00
2019-01-14T18:23:12.686Z,76.40
2019-01-14T18:25:58.974Z,78.10
2019-01-14T18:28:28.965Z,76.20
2019-01-14T18:30:59.438Z,78.70
2019-01-14T18:33:30.097Z,78.90
2019-01-14T18:36:19.807Z,78.70
2019-01-14T18:39:09.411Z,79.40
2019-01-14T18:41:53.420Z,77.60
2019-01-14T18:44:23.935Z,77.80
2019-01-14T18:46:54.955Z,78.60
2019-01-14T18:49:44.523Z,78.90
2019-01-14T18:52:34.127Z,78.90
2019-01-14T18:55:15.899Z,79.40
2019-01-14T19:00:43.290Z,78.00
2019-01-14T19:03:13.955Z,76.20
2019-01-14T19:05:44.691Z,76.60
2019-01-14T19:08:34.712Z,79.70
2019-01-14T19:11:18.498Z,76.10
2019-01-14T19:14:00.366Z,77.70
2019-01-14T19:16:43.349Z,79.20
2019-01-14T19:19:13.839Z,79.40
2019-01-14T19:21:44.340Z,78.80
2019-01-14T19:24:36.083Z,77.20
2019-01-14T19:27:25.713Z,78.60
2019-01-14T19:29:56.272Z,79.30
2019-01-14T19:32:46.188Z,81.80
2019-01-14T19:35:27.923Z,81.90
2019-01-14T19:38:10.666Z,83.00
2019-01-14T19:40:52.992Z,82.80
2019-01-14T19:43:35.182Z,82.40
2019-01-14T19:46:06.335Z,82.90
2019-01-14T19:48:55.915Z,86.50
2019-01-14T19:51:39.428Z,83.90
2019-01-14T19:54:22.044Z,85.00
2019-01-14T19:56:52.722Z,83.70
2019-01-14T19:59:23.608Z,87.30
2019-01-14T20:02:13.202Z,85.10
2019-01-14T20:04:43.698Z,84.10
2019-01-14T20:07:14.202Z,84.80
2019-01-14T20:09:44.718Z,84.70
2019-01-14T20:12:15.215Z,83.90
2019-01-14T20:15:05.622Z,85.80
2019-01-14T20:17:36.160Z,84.50
2019-01-14T20:20:25.887Z,83.10
2019-01-14T20:22:56.430Z,84.00
2019-01-14T20:25:26.997Z,84.80
2019-01-14T20:27:57.518Z,87.30
2019-01-14T20:30:28.012Z,83.30
2019-01-14T20:32:58.547Z,85.80
2019-01-14T20:35:29.023Z,83.00
2019-01-14T20:38:19.867Z,83.50
2019-01-14T20:41:03.089Z,83.70
2019-01-14T20:43:33.977Z,82.90
2019-01-14T20:46:23.694Z,86.50
2019-01-14T20:49:07.601Z,84.00
2019-01-14T20:51:50.028Z,85.20
2019-01-14T20:54:31.914Z,84.30
2019-01-14T20:57:02.494Z,84.00
2019-01-14T20:59:52.121Z,84.70
2019-01-14T21:02:23.530Z,84.30
2019-01-14T21:08:09.042Z,83.80
2019-01-14T21:10:50.836Z,85.10
2019-01-14T21:13:33.143Z,84.30
2019-01-14T21:16:16.296Z,83.30
2019-01-14T21:18:47.019Z,81.80
2019-01-14T21:21:36.748Z,81.80
2019-01-14T21:24:18.742Z,79.70
2019-01-14T21:27:01.697Z,80.70
2019-01-14T21:29:44.549Z,79.50
2019-01-14T21:32:26.849Z,80.40
2019-01-14T21:35:10.126Z,80.40
2019-01-14T21:37:52.574Z,78.80
2019-01-14T21:40:23.202Z,78.20
2019-01-14T21:42:55.352Z,77.20
2019-01-14T21:45:38.935Z,79.50
2019-01-14T21:48:09.537Z,78.80
2019-01-14T21:50:54.536Z,78.90
2019-01-14T21:53:25.267Z,78.90
2019-01-14T21:56:15.051Z,79.40
2019-01-14T21:58:45.778Z,78.30
2019-01-14T22:01:35.765Z,78.20
2019-01-14T22:04:25.382Z,80.40
2019-01-14T22:06:56.052Z,81.60
2019-01-14T22:09:26.615Z,83.70
2019-01-14T22:12:17.801Z,81.20
2019-01-14T22:15:07.709Z,82.70
2019-01-14T22:17:38.280Z,82.30
2019-01-14T22:23:06.862Z,81.20
2019-01-14T22:25:50.289Z,80.80
2019-01-14T22:28:20.991Z,82.30
2019-01-14T22:31:10.636Z,81.20
2019-01-14T22:34:00.256Z,81.30
2019-01-14T22:36:42.499Z,81.30
2019-01-14T22:39:25.490Z,80.10
2019-01-14T22:44:56.971Z,83.60
2019-01-14T22:47:39.656Z,84.00
2019-01-14T22:50:12.559Z,84.60
2019-01-14T22:52:44.666Z,86.00
2019-01-14T22:55:34.276Z,86.40
2019-01-14T22:58:23.875Z,88.60
2019-01-14T23:01:12.995Z,88.40
2019-01-14T23:06:38.334Z,89.80
2019-01-14T23:09:10.323Z,90.50
2019-01-14T23:11:59.889Z,90.20
2019-01-14T23:14:51.020Z,89.90
2019-01-14T23:17:34.223Z,90.80
2019-01-14T23:20:17.304Z,90.50
2019-01-14T23:25:40.920Z,89.40
2019-01-14T23:28:11.530Z,88.00
2019-01-14T23:31:01.143Z,86.30
2019-01-14T23:33:50.739Z,87.90
2019-01-14T23:39:15.378Z,86.90
2019-01-14T23:42:00.605Z,87.40
2019-01-14T23:44:41.607Z,85.60
2019-01-14T23:47:12.110Z,86.10
2019-01-14T23:49:42.963Z,86.10
2019-01-14T23:52:32.575Z,87.10
2019-01-14T23:55:22.306Z,87.80
2019-01-14T23:57:53.327Z,87.50
